sensor_id;sensor_type;location;lat;lon;timestamp;P1;durP1;ratioP1;P2;durP2;ratioP2
24157;SDS011;12316;50.904;4.200;2023-08-06T00:00:08;4.78;;;2.20;;
24157;SDS011;12316;50.904;4.200;2023-08-06T00:02:34;4.60;;;2.67;;
24157;SDS011;12316;50.904;4.200;2023-08-06T00:05:00;6.38;;;2.70;;
24157;SDS011;12316;50.904;4.200;2023-08-06T00:07:26;5.00;;;3.00;;
24157;SDS011;12316;50.904;4.200;2023-08-06T00:09:51;5.03;;;2.97;;
24157;SDS011;12316;50.904;4.200;2023-08-06T00:12:17;4.97;;;2.90;;
24157;SDS011;12316;50.904;4.200;2023-08-06T00:14:43;4.70;;;3.30;;
24157;SDS011;12316;50.904;4.200;2023-08-06T00:17:09;8.18;;;3.10;;
24157;SDS011;12316;50.904;4.200;2023-08-06T00:19:34;5.07;;;3.70;;
24157;SDS011;12316;50.904;4.200;2023-08-06T00:22:00;7.75;;;3.58;;
24157;SDS011;12316;50.904;4.200;2023-08-06T00:24:27;6.07;;;3.40;;
24157;SDS011;12316;50.904;4.200;2023-08-06T00:26:52;6.05;;;3.70;;
24157;SDS011;12316;50.904;4.200;2023-08-06T00:29:18;6.68;;;3.80;;
24157;SDS011;12316;50.904;4.200;2023-08-06T00:31:44;4.50;;;3.65;;
24157;SDS011;12316;50.904;4.200;2023-08-06T00:34:09;6.32;;;4.20;;
24157;SDS011;12316;50.904;4.200;2023-08-06T00:36:35;6.85;;;4.18;;
24157;SDS011;12316;50.904;4.200;2023-08-06T00:39:01;7.60;;;4.70;;
24157;SDS011;12316;50.904;4.200;2023-08-06T00:41:27;8.52;;;4.50;;
24157;SDS011;12316;50.904;4.200;2023-08-06T00:43:53;7.38;;;4.93;;
24157;SDS011;12316;50.904;4.200;2023-08-06T00:46:19;9.68;;;5.38;;
24157;SDS011;12316;50.904;4.200;2023-08-06T00:48:44;10.48;;;5.45;;
24157;SDS011;12316;50.904;4.200;2023-08-06T00:51:10;11.80;;;6.10;;
24157;SDS011;12316;50.904;4.200;2023-08-06T00:53:39;8.57;;;6.28;;
24157;SDS011;12316;50.904;4.200;2023-08-06T00:56:05;12.65;;;6.43;;
24157;SDS011;12316;50.904;4.200;2023-08-06T00:58:32;12.60;;;6.32;;
24157;SDS011;12316;50.904;4.200;2023-08-06T01:00:59;11.60;;;6.68;;
24157;SDS011;12316;50.904;4.200;2023-08-06T01:03:25;10.45;;;6.60;;
24157;SDS011;12316;50.904;4.200;2023-08-06T01:05:50;12.13;;;6.90;;
24157;SDS011;12316;50.904;4.200;2023-08-06T01:09:00;11.07;;;6.90;;
24157;SDS011;12316;50.904;4.200;2023-08-06T01:13:45;13.70;;;7.45;;
24157;SDS011;12316;50.904;4.200;2023-08-06T01:16:17;9.27;;;7.18;;
24157;SDS011;12316;50.904;4.200;2023-08-06T01:18:44;12.13;;;6.97;;
24157;SDS011;12316;50.904;4.200;2023-08-06T01:21:14;12.60;;;7.85;;
24157;SDS011;12316;50.904;4.200;2023-08-06T01:23:40;11.52;;;7.90;;
24157;SDS011;12316;50.904;4.200;2023-08-06T01:29:07;13.05;;;7.05;;
24157;SDS011;12316;50.904;4.200;2023-08-06T01:31:38;13.73;;;7.25;;
24157;SDS011;12316;50.904;4.200;2023-08-06T01:34:07;9.85;;;6.80;;
24157;SDS011;12316;50.904;4.200;2023-08-06T01:36:38;12.88;;;6.55;;
24157;SDS011;12316;50.904;4.200;2023-08-06T01:39:05;14.32;;;6.90;;
24157;SDS011;12316;50.904;4.200;2023-08-06T01:41:30;10.00;;;5.38;;
24157;SDS011;12316;50.904;4.200;2023-08-06T01:43:56;12.05;;;5.28;;
24157;SDS011;12316;50.904;4.200;2023-08-06T01:46:22;9.98;;;4.72;;
24157;SDS011;12316;50.904;4.200;2023-08-06T01:48:47;10.30;;;5.05;;
24157;SDS011;12316;50.904;4.200;2023-08-06T01:51:13;11.60;;;4.95;;
24157;SDS011;12316;50.904;4.200;2023-08-06T01:53:38;12.15;;;4.07;;
24157;SDS011;12316;50.904;4.200;2023-08-06T01:56:04;8.50;;;3.60;;
24157;SDS011;12316;50.904;4.200;2023-08-06T01:58:30;10.18;;;3.50;;
24157;SDS011;12316;50.904;4.200;2023-08-06T02:00:55;10.00;;;3.50;;
24157;SDS011;12316;50.904;4.200;2023-08-06T02:03:21;11.68;;;3.60;;
24157;SDS011;12316;50.904;4.200;2023-08-06T02:05:47;16.02;;;3.22;;
24157;SDS011;12316;50.904;4.200;2023-08-06T02:08:12;7.93;;;3.10;;
24157;SDS011;12316;50.904;4.200;2023-08-06T02:10:38;11.38;;;3.50;;
24157;SDS011;12316;50.904;4.200;2023-08-06T02:13:03;8.98;;;3.13;;
24157;SDS011;12316;50.904;4.200;2023-08-06T02:15:29;10.38;;;3.28;;
24157;SDS011;12316;50.904;4.200;2023-08-06T02:17:55;10.15;;;3.33;;
24157;SDS011;12316;50.904;4.200;2023-08-06T02:20:20;13.38;;;3.13;;
24157;SDS011;12316;50.904;4.200;2023-08-06T02:22:46;11.43;;;3.20;;
24157;SDS011;12316;50.904;4.200;2023-08-06T02:25:12;8.85;;;3.15;;
24157;SDS011;12316;50.904;4.200;2023-08-06T02:27:37;11.63;;;3.10;;
24157;SDS011;12316;50.904;4.200;2023-08-06T02:30:03;11.98;;;3.40;;
24157;SDS011;12316;50.904;4.200;2023-08-06T02:32:30;10.93;;;3.28;;
24157;SDS011;12316;50.904;4.200;2023-08-06T02:34:56;10.63;;;3.58;;
24157;SDS011;12316;50.904;4.200;2023-08-06T02:37:22;15.77;;;4.22;;
24157;SDS011;12316;50.904;4.200;2023-08-06T02:39:48;15.65;;;5.00;;
24157;SDS011;12316;50.904;4.200;2023-08-06T02:42:13;13.35;;;4.70;;
24157;SDS011;12316;50.904;4.200;2023-08-06T02:44:39;9.45;;;4.45;;
24157;SDS011;12316;50.904;4.200;2023-08-06T02:47:04;6.55;;;4.70;;
24157;SDS011;12316;50.904;4.200;2023-08-06T02:49:30;13.35;;;5.40;;
24157;SDS011;12316;50.904;4.200;2023-08-06T02:51:56;14.25;;;7.28;;
24157;SDS011;12316;50.904;4.200;2023-08-06T02:54:22;18.33;;;9.93;;
24157;SDS011;12316;50.904;4.200;2023-08-06T02:56:47;21.98;;;12.63;;
24157;SDS011;12316;50.904;4.200;2023-08-06T02:59:13;24.13;;;13.52;;
24157;SDS011;12316;50.904;4.200;2023-08-06T03:01:39;22.58;;;15.48;;
24157;SDS011;12316;50.904;4.200;2023-08-06T03:04:05;24.70;;;16.65;;
24157;SDS011;12316;50.904;4.200;2023-08-06T03:06:31;22.63;;;15.40;;
24157;SDS011;12316;50.904;4.200;2023-08-06T03:08:57;22.95;;;15.57;;
24157;SDS011;12316;50.904;4.200;2023-08-06T03:11:22;18.77;;;13.85;;
24157;SDS011;12316;50.904;4.200;2023-08-06T03:13:48;12.75;;;10.18;;
24157;SDS011;12316;50.904;4.200;2023-08-06T03:16:14;14.32;;;10.27;;
24157;SDS011;12316;50.904;4.200;2023-08-06T03:18:39;14.30;;;11.35;;
24157;SDS011;12316;50.904;4.200;2023-08-06T03:21:05;13.50;;;7.53;;
24157;SDS011;12316;50.904;4.200;2023-08-06T03:23:31;14.02;;;7.03;;
24157;SDS011;12316;50.904;4.200;2023-08-06T03:26:00;6.65;;;4.85;;
24157;SDS011;12316;50.904;4.200;2023-08-06T03:28:27;10.45;;;3.97;;
24157;SDS011;12316;50.904;4.200;2023-08-06T03:31:03;22.40;;;5.53;;
24157;SDS011;12316;50.904;4.200;2023-08-06T03:33:29;11.38;;;4.60;;
24157;SDS011;12316;50.904;4.200;2023-08-06T03:35:55;13.88;;;4.50;;
24157;SDS011;12316;50.904;4.200;2023-08-06T03:38:21;11.38;;;3.80;;
24157;SDS011;12316;50.904;4.200;2023-08-06T03:40:47;6.35;;;3.22;;
24157;SDS011;12316;50.904;4.200;2023-08-06T03:43:13;6.68;;;3.15;;
24157;SDS011;12316;50.904;4.200;2023-08-06T03:45:40;10.23;;;3.50;;
24157;SDS011;12316;50.904;4.200;2023-08-06T03:48:06;7.60;;;3.83;;
24157;SDS011;12316;50.904;4.200;2023-08-06T03:50:31;5.70;;;3.60;;
24157;SDS011;12316;50.904;4.200;2023-08-06T03:52:57;8.82;;;3.58;;
24157;SDS011;12316;50.904;4.200;2023-08-06T03:55:23;8.73;;;3.65;;
24157;SDS011;12316;50.904;4.200;2023-08-06T03:57:48;8.40;;;3.72;;
24157;SDS011;12316;50.904;4.200;2023-08-06T04:00:14;9.10;;;3.95;;
24157;SDS011;12316;50.904;4.200;2023-08-06T04:02:40;6.65;;;3.83;;
24157;SDS011;12316;50.904;4.200;2023-08-06T04:05:06;7.22;;;4.85;;
24157;SDS011;12316;50.904;4.200;2023-08-06T04:07:32;10.40;;;5.05;;
24157;SDS011;12316;50.904;4.200;2023-08-06T04:09:58;12.82;;;5.35;;
24157;SDS011;12316;50.904;4.200;2023-08-06T04:12:25;11.38;;;5.60;;
24157;SDS011;12316;50.904;4.200;2023-08-06T04:14:52;11.23;;;5.43;;
24157;SDS011;12316;50.904;4.200;2023-08-06T04:17:18;10.13;;;6.07;;
24157;SDS011;12316;50.904;4.200;2023-08-06T04:19:52;9.52;;;5.60;;
24157;SDS011;12316;50.904;4.200;2023-08-06T04:22:19;9.85;;;5.97;;
24157;SDS011;12316;50.904;4.200;2023-08-06T04:24:45;12.45;;;6.15;;
24157;SDS011;12316;50.904;4.200;2023-08-06T04:27:11;12.93;;;7.65;;
24157;SDS011;12316;50.904;4.200;2023-08-06T04:29:38;14.90;;;8.32;;
24157;SDS011;12316;50.904;4.200;2023-08-06T04:32:05;16.60;;;8.82;;
24157;SDS011;12316;50.904;4.200;2023-08-06T04:34:32;19.23;;;10.32;;
24157;SDS011;12316;50.904;4.200;2023-08-06T04:36:58;21.33;;;10.30;;
24157;SDS011;12316;50.904;4.200;2023-08-06T04:39:24;16.02;;;9.68;;
24157;SDS011;12316;50.904;4.200;2023-08-06T04:41:50;20.02;;;9.75;;
24157;SDS011;12316;50.904;4.200;2023-08-06T04:44:16;17.30;;;10.10;;
24157;SDS011;12316;50.904;4.200;2023-08-06T04:46:41;16.33;;;10.45;;
24157;SDS011;12316;50.904;4.200;2023-08-06T04:49:07;18.58;;;10.70;;
24157;SDS011;12316;50.904;4.200;2023-08-06T04:51:33;23.85;;;10.35;;
24157;SDS011;12316;50.904;4.200;2023-08-06T04:53:58;20.30;;;10.18;;
24157;SDS011;12316;50.904;4.200;2023-08-06T04:56:24;17.88;;;10.15;;
24157;SDS011;12316;50.904;4.200;2023-08-06T04:58:50;23.02;;;10.32;;
24157;SDS011;12316;50.904;4.200;2023-08-06T05:01:16;23.42;;;11.30;;
24157;SDS011;12316;50.904;4.200;2023-08-06T05:03:41;26.88;;;12.20;;
24157;SDS011;12316;50.904;4.200;2023-08-06T05:06:07;21.67;;;12.70;;
24157;SDS011;12316;50.904;4.200;2023-08-06T05:08:33;21.75;;;11.02;;
24157;SDS011;12316;50.904;4.200;2023-08-06T05:10:58;20.25;;;10.15;;
24157;SDS011;12316;50.904;4.200;2023-08-06T05:13:24;24.02;;;9.45;;
24157;SDS011;12316;50.904;4.200;2023-08-06T05:15:50;18.70;;;7.95;;
24157;SDS011;12316;50.904;4.200;2023-08-06T05:18:18;15.50;;;8.02;;
24157;SDS011;12316;50.904;4.200;2023-08-06T05:20:44;20.58;;;7.43;;
24157;SDS011;12316;50.904;4.200;2023-08-06T05:23:09;19.95;;;6.88;;
24157;SDS011;12316;50.904;4.200;2023-08-06T05:25:35;23.30;;;7.55;;
24157;SDS011;12316;50.904;4.200;2023-08-06T05:28:02;22.02;;;8.48;;
24157;SDS011;12316;50.904;4.200;2023-08-06T05:30:28;23.00;;;8.82;;
24157;SDS011;12316;50.904;4.200;2023-08-06T05:32:55;32.00;;;10.70;;
24157;SDS011;12316;50.904;4.200;2023-08-06T05:35:21;24.77;;;10.48;;
24157;SDS011;12316;50.904;4.200;2023-08-06T05:37:47;27.90;;;10.07;;
24157;SDS011;12316;50.904;4.200;2023-08-06T05:40:13;24.63;;;9.95;;
24157;SDS011;12316;50.904;4.200;2023-08-06T05:42:39;21.50;;;8.85;;
24157;SDS011;12316;50.904;4.200;2023-08-06T05:45:05;30.67;;;9.15;;
24157;SDS011;12316;50.904;4.200;2023-08-06T05:47:31;24.63;;;8.45;;
24157;SDS011;12316;50.904;4.200;2023-08-06T05:49:57;21.40;;;7.55;;
24157;SDS011;12316;50.904;4.200;2023-08-06T05:52:23;20.90;;;8.13;;
24157;SDS011;12316;50.904;4.200;2023-08-06T05:54:48;21.05;;;7.50;;
24157;SDS011;12316;50.904;4.200;2023-08-06T05:57:14;23.92;;;7.60;;
24157;SDS011;12316;50.904;4.200;2023-08-06T05:59:41;21.33;;;6.93;;
24157;SDS011;12316;50.904;4.200;2023-08-06T06:02:07;23.23;;;7.07;;
24157;SDS011;12316;50.904;4.200;2023-08-06T06:04:32;19.60;;;7.55;;
24157;SDS011;12316;50.904;4.200;2023-08-06T06:06:58;18.98;;;6.90;;
24157;SDS011;12316;50.904;4.200;2023-08-06T06:09:23;17.08;;;6.93;;
24157;SDS011;12316;50.904;4.200;2023-08-06T06:11:49;22.92;;;7.47;;
24157;SDS011;12316;50.904;4.200;2023-08-06T06:14:16;16.42;;;6.63;;
24157;SDS011;12316;50.904;4.200;2023-08-06T06:16:44;17.88;;;6.53;;
24157;SDS011;12316;50.904;4.200;2023-08-06T06:19:10;20.67;;;7.15;;
24157;SDS011;12316;50.904;4.200;2023-08-06T06:21:36;19.20;;;7.32;;
24157;SDS011;12316;50.904;4.200;2023-08-06T06:24:03;16.77;;;6.50;;
24157;SDS011;12316;50.904;4.200;2023-08-06T06:26:30;19.83;;;6.20;;
24157;SDS011;12316;50.904;4.200;2023-08-06T06:28:56;19.70;;;6.53;;
24157;SDS011;12316;50.904;4.200;2023-08-06T06:31:21;17.85;;;7.00;;
24157;SDS011;12316;50.904;4.200;2023-08-06T06:33:47;23.75;;;6.40;;
24157;SDS011;12316;50.904;4.200;2023-08-06T06:36:13;19.40;;;6.35;;
24157;SDS011;12316;50.904;4.200;2023-08-06T06:38:38;19.58;;;6.95;;
24157;SDS011;12316;50.904;4.200;2023-08-06T06:41:04;18.45;;;5.57;;
24157;SDS011;12316;50.904;4.200;2023-08-06T06:43:30;20.73;;;6.32;;
24157;SDS011;12316;50.904;4.200;2023-08-06T06:45:56;16.90;;;5.43;;
24157;SDS011;12316;50.904;4.200;2023-08-06T06:48:24;13.77;;;4.05;;
24157;SDS011;12316;50.904;4.200;2023-08-06T06:50:54;15.25;;;3.83;;
24157;SDS011;12316;50.904;4.200;2023-08-06T06:53:20;11.57;;;3.80;;
24157;SDS011;12316;50.904;4.200;2023-08-06T06:55:48;13.77;;;3.33;;
24157;SDS011;12316;50.904;4.200;2023-08-06T06:58:14;14.48;;;3.83;;
24157;SDS011;12316;50.904;4.200;2023-08-06T07:00:41;14.82;;;3.00;;
24157;SDS011;12316;50.904;4.200;2023-08-06T07:03:07;16.98;;;3.15;;
24157;SDS011;12316;50.904;4.200;2023-08-06T07:05:32;10.35;;;2.90;;
24157;SDS011;12316;50.904;4.200;2023-08-06T07:07:58;14.20;;;2.75;;
24157;SDS011;12316;50.904;4.200;2023-08-06T07:10:24;12.55;;;2.78;;
24157;SDS011;12316;50.904;4.200;2023-08-06T07:12:50;11.43;;;2.45;;
24157;SDS011;12316;50.904;4.200;2023-08-06T07:15:16;10.68;;;2.38;;
24157;SDS011;12316;50.904;4.200;2023-08-06T07:17:43;12.32;;;2.30;;
24157;SDS011;12316;50.904;4.200;2023-08-06T07:20:08;11.25;;;2.25;;
24157;SDS011;12316;50.904;4.200;2023-08-06T07:22:35;8.82;;;2.08;;
24157;SDS011;12316;50.904;4.200;2023-08-06T07:25:00;12.07;;;2.20;;
24157;SDS011;12316;50.904;4.200;2023-08-06T07:27:26;14.63;;;2.30;;
24157;SDS011;12316;50.904;4.200;2023-08-06T07:29:52;10.15;;;1.70;;
24157;SDS011;12316;50.904;4.200;2023-08-06T07:32:18;12.18;;;2.38;;
24157;SDS011;12316;50.904;4.200;2023-08-06T07:34:43;8.43;;;1.80;;
24157;SDS011;12316;50.904;4.200;2023-08-06T07:37:09;9.40;;;2.20;;
24157;SDS011;12316;50.904;4.200;2023-08-06T07:39:35;8.27;;;1.95;;
24157;SDS011;12316;50.904;4.200;2023-08-06T07:42:02;9.95;;;2.08;;
24157;SDS011;12316;50.904;4.200;2023-08-06T07:44:30;11.40;;;2.25;;
24157;SDS011;12316;50.904;4.200;2023-08-06T07:46:56;10.73;;;2.08;;
24157;SDS011;12316;50.904;4.200;2023-08-06T07:49:22;8.50;;;1.88;;
24157;SDS011;12316;50.904;4.200;2023-08-06T07:51:47;15.45;;;2.65;;
24157;SDS011;12316;50.904;4.200;2023-08-06T07:54:13;10.65;;;2.10;;
24157;SDS011;12316;50.904;4.200;2023-08-06T07:56:39;9.77;;;1.75;;
24157;SDS011;12316;50.904;4.200;2023-08-06T07:59:05;7.45;;;2.10;;
24157;SDS011;12316;50.904;4.200;2023-08-06T08:01:30;7.72;;;1.70;;
24157;SDS011;12316;50.904;4.200;2023-08-06T08:03:56;11.00;;;2.40;;
24157;SDS011;12316;50.904;4.200;2023-08-06T08:06:21;14.07;;;1.98;;
24157;SDS011;12316;50.904;4.200;2023-08-06T08:08:48;13.13;;;2.33;;
24157;SDS011;12316;50.904;4.200;2023-08-06T08:11:13;8.48;;;2.08;;
24157;SDS011;12316;50.904;4.200;2023-08-06T08:13:41;8.82;;;1.88;;
24157;SDS011;12316;50.904;4.200;2023-08-06T08:16:06;8.00;;;2.35;;
24157;SDS011;12316;50.904;4.200;2023-08-06T08:18:32;7.80;;;2.00;;
24157;SDS011;12316;50.904;4.200;2023-08-06T08:20:58;13.43;;;2.40;;
24157;SDS011;12316;50.904;4.200;2023-08-06T08:23:23;10.73;;;2.03;;
24157;SDS011;12316;50.904;4.200;2023-08-06T08:25:49;9.55;;;2.00;;
24157;SDS011;12316;50.904;4.200;2023-08-06T08:28:15;11.82;;;2.53;;
24157;SDS011;12316;50.904;4.200;2023-08-06T08:30:41;10.40;;;2.30;;
24157;SDS011;12316;50.904;4.200;2023-08-06T08:33:06;14.18;;;2.58;;
24157;SDS011;12316;50.904;4.200;2023-08-06T08:35:33;8.40;;;2.30;;
24157;SDS011;12316;50.904;4.200;2023-08-06T08:37:59;9.73;;;2.03;;
24157;SDS011;12316;50.904;4.200;2023-08-06T08:40:26;10.23;;;2.20;;
24157;SDS011;12316;50.904;4.200;2023-08-06T08:42:56;8.93;;;2.03;;
24157;SDS011;12316;50.904;4.200;2023-08-06T08:45:23;10.57;;;2.20;;
24157;SDS011;12316;50.904;4.200;2023-08-06T08:47:53;11.25;;;2.10;;
24157;SDS011;12316;50.904;4.200;2023-08-06T08:50:19;8.55;;;1.92;;
24157;SDS011;12316;50.904;4.200;2023-08-06T08:52:45;9.93;;;2.28;;
24157;SDS011;12316;50.904;4.200;2023-08-06T08:55:14;13.00;;;2.60;;
24157;SDS011;12316;50.904;4.200;2023-08-06T08:57:40;9.82;;;1.92;;
24157;SDS011;12316;50.904;4.200;2023-08-06T09:00:06;8.10;;;2.20;;
24157;SDS011;12316;50.904;4.200;2023-08-06T09:02:32;10.75;;;2.47;;
24157;SDS011;12316;50.904;4.200;2023-08-06T09:04:59;8.65;;;2.10;;
24157;SDS011;12316;50.904;4.200;2023-08-06T09:07:27;10.93;;;2.60;;
24157;SDS011;12316;50.904;4.200;2023-08-06T09:09:56;11.95;;;2.53;;
24157;SDS011;12316;50.904;4.200;2023-08-06T09:12:24;10.75;;;2.58;;
24157;SDS011;12316;50.904;4.200;2023-08-06T09:14:51;7.80;;;2.25;;
24157;SDS011;12316;50.904;4.200;2023-08-06T09:17:17;12.98;;;2.97;;
24157;SDS011;12316;50.904;4.200;2023-08-06T09:19:45;7.82;;;2.10;;
24157;SDS011;12316;50.904;4.200;2023-08-06T09:22:13;12.55;;;2.65;;
24157;SDS011;12316;50.904;4.200;2023-08-06T09:24:42;12.43;;;2.58;;
24157;SDS011;12316;50.904;4.200;2023-08-06T09:27:14;11.25;;;2.72;;
24157;SDS011;12316;50.904;4.200;2023-08-06T09:29:41;11.20;;;2.58;;
24157;SDS011;12316;50.904;4.200;2023-08-06T09:32:11;11.10;;;2.25;;
24157;SDS011;12316;50.904;4.200;2023-08-06T09:34:42;13.32;;;2.70;;
24157;SDS011;12316;50.904;4.200;2023-08-06T09:37:08;11.88;;;3.00;;
24157;SDS011;12316;50.904;4.200;2023-08-06T09:39:40;11.43;;;2.22;;
24157;SDS011;12316;50.904;4.200;2023-08-06T09:42:06;8.68;;;2.00;;
24157;SDS011;12316;50.904;4.200;2023-08-06T09:44:32;8.98;;;2.75;;
24157;SDS011;12316;50.904;4.200;2023-08-06T09:47:00;13.27;;;2.50;;
24157;SDS011;12316;50.904;4.200;2023-08-06T09:49:28;12.98;;;3.03;;
24157;SDS011;12316;50.904;4.200;2023-08-06T09:52:11;8.70;;;2.40;;
24157;SDS011;12316;50.904;4.200;2023-08-06T09:54:38;10.00;;;1.80;;
24157;SDS011;12316;50.904;4.200;2023-08-06T09:57:07;10.73;;;1.95;;
24157;SDS011;12316;50.904;4.200;2023-08-06T09:59:34;10.73;;;1.92;;
24157;SDS011;12316;50.904;4.200;2023-08-06T10:02:02;13.07;;;2.17;;
24157;SDS011;12316;50.904;4.200;2023-08-06T10:04:32;8.95;;;1.95;;
24157;SDS011;12316;50.904;4.200;2023-08-06T10:06:58;5.75;;;1.67;;
24157;SDS011;12316;50.904;4.200;2023-08-06T10:09:25;8.88;;;2.05;;
24157;SDS011;12316;50.904;4.200;2023-08-06T10:11:51;10.18;;;2.03;;
24157;SDS011;12316;50.904;4.200;2023-08-06T10:14:22;12.93;;;2.33;;
24157;SDS011;12316;50.904;4.200;2023-08-06T10:16:51;11.55;;;2.22;;
24157;SDS011;12316;50.904;4.200;2023-08-06T10:19:18;7.10;;;1.90;;
24157;SDS011;12316;50.904;4.200;2023-08-06T10:24:48;8.93;;;2.10;;
24157;SDS011;12316;50.904;4.200;2023-08-06T10:27:22;9.98;;;2.20;;
24157;SDS011;12316;50.904;4.200;2023-08-06T10:29:48;7.07;;;2.13;;
24157;SDS011;12316;50.904;4.200;2023-08-06T10:32:17;6.38;;;2.13;;
24157;SDS011;12316;50.904;4.200;2023-08-06T10:34:53;11.35;;;2.30;;
24157;SDS011;12316;50.904;4.200;2023-08-06T10:37:22;10.88;;;3.05;;
24157;SDS011;12316;50.904;4.200;2023-08-06T10:39:51;12.68;;;2.88;;
24157;SDS011;12316;50.904;4.200;2023-08-06T10:42:26;9.10;;;2.80;;
24157;SDS011;12316;50.904;4.200;2023-08-06T10:45:12;11.23;;;2.88;;
24157;SDS011;12316;50.904;4.200;2023-08-06T10:47:43;12.20;;;2.75;;
24157;SDS011;12316;50.904;4.200;2023-08-06T10:50:16;14.32;;;2.70;;
24157;SDS011;12316;50.904;4.200;2023-08-06T10:52:45;9.60;;;2.33;;
24157;SDS011;12316;50.904;4.200;2023-08-06T10:55:12;13.45;;;2.28;;
24157;SDS011;12316;50.904;4.200;2023-08-06T10:58:07;8.38;;;2.15;;
24157;SDS011;12316;50.904;4.200;2023-08-06T11:00:33;11.15;;;2.38;;
24157;SDS011;12316;50.904;4.200;2023-08-06T11:02:58;13.45;;;2.60;;
24157;SDS011;12316;50.904;4.200;2023-08-06T11:05:24;10.15;;;2.25;;
24157;SDS011;12316;50.904;4.200;2023-08-06T11:07:51;10.80;;;2.40;;
24157;SDS011;12316;50.904;4.200;2023-08-06T11:10:17;7.63;;;2.05;;
24157;SDS011;12316;50.904;4.200;2023-08-06T11:12:43;6.28;;;1.85;;
24157;SDS011;12316;50.904;4.200;2023-08-06T11:15:09;7.63;;;1.80;;
24157;SDS011;12316;50.904;4.200;2023-08-06T11:17:36;10.63;;;1.98;;
24157;SDS011;12316;50.904;4.200;2023-08-06T11:20:04;12.05;;;2.00;;
24157;SDS011;12316;50.904;4.200;2023-08-06T11:22:30;11.38;;;2.30;;
24157;SDS011;12316;50.904;4.200;2023-08-06T11:24:57;10.07;;;2.10;;
24157;SDS011;12316;50.904;4.200;2023-08-06T11:27:22;6.55;;;1.95;;
24157;SDS011;12316;50.904;4.200;2023-08-06T11:29:51;7.45;;;2.00;;
24157;SDS011;12316;50.904;4.200;2023-08-06T11:32:17;5.72;;;1.70;;
24157;SDS011;12316;50.904;4.200;2023-08-06T11:34:43;9.60;;;1.88;;
24157;SDS011;12316;50.904;4.200;2023-08-06T11:37:08;10.32;;;2.38;;
24157;SDS011;12316;50.904;4.200;2023-08-06T11:39:36;7.82;;;2.13;;
24157;SDS011;12316;50.904;4.200;2023-08-06T11:42:03;8.68;;;2.38;;
24157;SDS011;12316;50.904;4.200;2023-08-06T11:44:31;5.78;;;2.00;;
24157;SDS011;12316;50.904;4.200;2023-08-06T11:47:01;8.32;;;1.75;;
24157;SDS011;12316;50.904;4.200;2023-08-06T11:52:15;9.25;;;1.60;;
24157;SDS011;12316;50.904;4.200;2023-08-06T11:54:44;8.40;;;2.25;;
24157;SDS011;12316;50.904;4.200;2023-08-06T11:57:10;7.57;;;1.98;;
24157;SDS011;12316;50.904;4.200;2023-08-06T11:59:37;8.48;;;2.22;;
24157;SDS011;12316;50.904;4.200;2023-08-06T12:02:04;7.35;;;2.00;;
24157;SDS011;12316;50.904;4.200;2023-08-06T12:04:31;9.77;;;2.20;;
24157;SDS011;12316;50.904;4.200;2023-08-06T12:07:04;8.07;;;2.30;;
24157;SDS011;12316;50.904;4.200;2023-08-06T12:09:32;11.02;;;2.15;;
24157;SDS011;12316;50.904;4.200;2023-08-06T12:11:58;9.20;;;2.25;;
24157;SDS011;12316;50.904;4.200;2023-08-06T12:14:24;11.73;;;2.20;;
24157;SDS011;12316;50.904;4.200;2023-08-06T12:16:50;12.90;;;2.20;;
24157;SDS011;12316;50.904;4.200;2023-08-06T12:19:15;9.20;;;2.30;;
24157;SDS011;12316;50.904;4.200;2023-08-06T12:21:41;8.13;;;2.20;;
24157;SDS011;12316;50.904;4.200;2023-08-06T12:24:07;8.18;;;2.00;;
24157;SDS011;12316;50.904;4.200;2023-08-06T12:26:32;10.20;;;2.13;;
24157;SDS011;12316;50.904;4.200;2023-08-06T12:28:58;9.13;;;2.08;;
24157;SDS011;12316;50.904;4.200;2023-08-06T12:31:23;8.68;;;2.10;;
24157;SDS011;12316;50.904;4.200;2023-08-06T12:33:49;9.25;;;2.33;;
24157;SDS011;12316;50.904;4.200;2023-08-06T12:36:15;10.88;;;2.05;;
24157;SDS011;12316;50.904;4.200;2023-08-06T12:38:40;11.13;;;2.05;;
24157;SDS011;12316;50.904;4.200;2023-08-06T12:41:06;10.88;;;2.10;;
24157;SDS011;12316;50.904;4.200;2023-08-06T12:43:31;8.52;;;1.92;;
24157;SDS011;12316;50.904;4.200;2023-08-06T12:45:57;8.38;;;2.00;;
24157;SDS011;12316;50.904;4.200;2023-08-06T12:48:23;8.30;;;1.90;;
24157;SDS011;12316;50.904;4.200;2023-08-06T12:50:48;6.95;;;2.00;;
24157;SDS011;12316;50.904;4.200;2023-08-06T12:53:14;9.18;;;1.75;;
24157;SDS011;12316;50.904;4.200;2023-08-06T12:55:40;6.72;;;2.10;;
24157;SDS011;12316;50.904;4.200;2023-08-06T12:58:06;10.07;;;2.53;;
24157;SDS011;12316;50.904;4.200;2023-08-06T13:00:32;12.63;;;2.05;;
24157;SDS011;12316;50.904;4.200;2023-08-06T13:02:59;7.10;;;1.80;;
24157;SDS011;12316;50.904;4.200;2023-08-06T13:05:24;7.35;;;2.20;;
24157;SDS011;12316;50.904;4.200;2023-08-06T13:07:50;6.68;;;2.00;;
24157;SDS011;12316;50.904;4.200;2023-08-06T13:10:15;6.22;;;2.03;;
24157;SDS011;12316;50.904;4.200;2023-08-06T13:12:41;8.90;;;2.00;;
24157;SDS011;12316;50.904;4.200;2023-08-06T13:15:07;10.80;;;2.30;;
24157;SDS011;12316;50.904;4.200;2023-08-06T13:17:33;9.27;;;2.35;;
24157;SDS011;12316;50.904;4.200;2023-08-06T13:19:59;7.43;;;2.20;;
24157;SDS011;12316;50.904;4.200;2023-08-06T13:22:24;7.20;;;1.95;;
24157;SDS011;12316;50.904;4.200;2023-08-06T13:24:50;12.93;;;2.53;;
24157;SDS011;12316;50.904;4.200;2023-08-06T13:27:15;14.75;;;2.53;;
24157;SDS011;12316;50.904;4.200;2023-08-06T13:29:41;9.88;;;2.33;;
24157;SDS011;12316;50.904;4.200;2023-08-06T13:32:07;8.02;;;2.13;;
24157;SDS011;12316;50.904;4.200;2023-08-06T13:34:32;11.65;;;2.50;;
24157;SDS011;12316;50.904;4.200;2023-08-06T13:36:58;11.13;;;2.28;;
24157;SDS011;12316;50.904;4.200;2023-08-06T13:39:24;7.65;;;2.33;;
24157;SDS011;12316;50.904;4.200;2023-08-06T13:41:49;10.70;;;2.30;;
24157;SDS011;12316;50.904;4.200;2023-08-06T13:44:15;9.38;;;2.20;;
24157;SDS011;12316;50.904;4.200;2023-08-06T13:46:41;9.57;;;2.10;;
24157;SDS011;12316;50.904;4.200;2023-08-06T13:49:07;6.70;;;1.52;;
24157;SDS011;12316;50.904;4.200;2023-08-06T13:51:32;7.90;;;1.75;;
24157;SDS011;12316;50.904;4.200;2023-08-06T13:54:00;7.45;;;1.63;;
24157;SDS011;12316;50.904;4.200;2023-08-06T13:56:26;4.95;;;1.67;;
24157;SDS011;12316;50.904;4.200;2023-08-06T13:58:51;6.97;;;1.52;;
24157;SDS011;12316;50.904;4.200;2023-08-06T14:01:17;5.05;;;1.50;;
24157;SDS011;12316;50.904;4.200;2023-08-06T14:03:46;8.93;;;1.52;;
24157;SDS011;12316;50.904;4.200;2023-08-06T14:06:11;6.00;;;1.73;;
24157;SDS011;12316;50.904;4.200;2023-08-06T14:08:37;9.23;;;2.20;;
24157;SDS011;12316;50.904;4.200;2023-08-06T14:11:03;9.00;;;2.13;;
24157;SDS011;12316;50.904;4.200;2023-08-06T14:13:30;12.82;;;2.25;;
24157;SDS011;12316;50.904;4.200;2023-08-06T14:15:56;13.45;;;2.08;;
24157;SDS011;12316;50.904;4.200;2023-08-06T14:18:21;10.10;;;2.10;;
24157;SDS011;12316;50.904;4.200;2023-08-06T14:20:47;10.73;;;2.50;;
24157;SDS011;12316;50.904;4.200;2023-08-06T14:23:12;12.70;;;2.22;;
24157;SDS011;12316;50.904;4.200;2023-08-06T14:25:38;11.05;;;2.17;;
24157;SDS011;12316;50.904;4.200;2023-08-06T14:28:04;11.55;;;2.42;;
24157;SDS011;12316;50.904;4.200;2023-08-06T14:30:31;7.30;;;1.95;;
24157;SDS011;12316;50.904;4.200;2023-08-06T14:32:58;11.20;;;2.38;;
24157;SDS011;12316;50.904;4.200;2023-08-06T14:35:25;10.63;;;2.20;;
24157;SDS011;12316;50.904;4.200;2023-08-06T14:37:51;10.02;;;2.30;;
24157;SDS011;12316;50.904;4.200;2023-08-06T14:40:17;13.43;;;2.25;;
24157;SDS011;12316;50.904;4.200;2023-08-06T14:42:42;14.57;;;2.72;;
24157;SDS011;12316;50.904;4.200;2023-08-06T14:45:08;13.77;;;2.42;;